Aiken, SC (29803)

11:52 PM EST on February 28, 2015 (GMT -0500)
Hopeland Farms | Change Station
CLOSE
Current Station
Personal Weather Station
Location: Aiken, SC
Elevation: 489 ft
Nearby Weather Stations

Elev 489 ft 33.53 °N, 81.69 °W | Updated 13 minutes ago

Overcast
Overcast
39.0 °F
Feels Like 36 °F
N
3.8
Wind Variable Wind from ESE

Today
High -- | Low -- °F
--% Chance of Precip.
Yesterday
High -- | Low -- °F
Precip. -- in
6:56 AM 6:22 PM
Waxing Gibbous, 82% visible
Pressure 30.62 in
Visibility 10.0 miles
Clouds Overcast 2100 ft
Windchill 36 °F
Dew Point 38 °F
Humidity 96%
Rainfall 0.07 in
Snow Depth Not available.
UV 0 out of 12
Pollen 8.30 out of 12
Air Quality Not available.
Flu Activity Not available.
METAR KAIK 010455Z AUTO 05006KT 10SM -RA OVC021 04/02 A3062 RMK AO2

More Conditions Fewer Conditions

Pressure 30.62 in
Visibility 10.0 miles
Clouds Overcast 2100 ft
Windchill 36 °F
Dew Point 38 °F
Humidity 96%
Rainfall 0.07 in
Snow Depth Not available.
UV 0 out of 12
Pollen 8.30 out of 12
Air Quality Not available.
Flu Activity Not available.
METAR KAIK 010455Z AUTO 05006KT 10SM -RA OVC021 04/02 A3062 RMK AO2

More Conditions Fewer Conditions

10-Day Weather Forecast

Almanac

Astronomy

Feb. 28, 2015 Rise Set
Actual Time
Civil Twilight
Nautical Twilight
Astronomical Twilight
Moon
Length of Visible Light
Length of Day
Tomorrow will be .
, % of the Moon is Illuminated

Today's Extremes

State Highs State Lows

Community

WunderPhotos

Upload Photos

1,801,320 photos uploaded!

WunderBlogs® & News

Nearby

Air Quality

  Air Quality AQ Index Pollutant
Not available.

Snow Depth

Station Depth Elevation

Earthquake Activity

City Distance Mag. Time & Date
Minimum magnitude displayed is 2.5.

Coastal Water Temperatures

Place Temperature

Nearby Weather Stations